Titonka, IA

4:34 PM CDT on March 31, 2015 (GMT -0500)
Fairmont Municipal | | Change Station
CLOSE
Current Station
Airport
Location: Fairmont,
Elevation: 1161 ft
Nearby Weather Stations
Active Advisory: Fire Weather Watch

Elev 1161 ft 43.65 °N, 94.42 °W | Updated 19 minutes ago

Clear
Clear
70 °F
Feels Like 70 °F
N
8
Wind Variable Wind from NNW

Today
High -- | Low -- °F
--% Chance of Precip.
Yesterday
High -- | Low -- °F
Precip. -- in
7:00 AM 7:41 PM
Waxing Gibbous, 89% visible
Pressure 29.88 in
Visibility 10.0 miles
Clouds Clear
Dew Point 19 °F
Humidity 15%
Rainfall 0.00 in
Snow Depth Not available.
UV 4 out of 12
Pollen 6.70 out of 12
Air Quality Not available.
Flu Activity Not available.
METAR KFRM 312115Z AUTO 33007KT 10SM CLR 21/M07 A2988 RMK AO1

More Conditions Fewer Conditions

Pressure 29.88 in
Visibility 10.0 miles
Clouds Clear
Dew Point 19 °F
Humidity 15%
Rainfall 0.00 in
Snow Depth Not available.
UV 4 out of 12
Pollen 6.70 out of 12
Air Quality Not available.
Flu Activity Not available.
METAR KFRM 312115Z AUTO 33007KT 10SM CLR 21/M07 A2988 RMK AO1

More Conditions Fewer Conditions

10-Day Weather Forecast

Almanac

Astronomy

Mar. 31, 2015 Rise Set
Actual Time
Civil Twilight
Nautical Twilight
Astronomical Twilight
Moon
Length of Visible Light
Length of Day
Tomorrow will be .
, % of the Moon is Illuminated

Today's Extremes

State Highs State Lows

Community

WunderPhotos

Upload Photos

1,809,842 photos uploaded!

WunderBlogs® & News

Nearby

Air Quality

  Air Quality AQ Index Pollutant
Not available.

Snow Depth

Station Depth Elevation

Earthquake Activity

City Distance Mag. Time & Date
Minimum magnitude displayed is 2.5.

Coastal Water Temperatures

Place Temperature

Stations

Nearby Weather Stations

Station Location Temp. Windchill Dew Point Humidity Wind Precip. Elev Updated Type
                   
Fire Weather Watch
Statement as of 3:38 PM CDT on March 31, 2015

... Fire Weather Watch in effect from Wednesday morning through
Wednesday evening for extreme fire conditions... .

The National Weather Service in Des Moines has issued a Fire
Weather Watch for extreme fire conditions... which is in effect
from Wednesday morning through Wednesday evening.

* Timing... winds will increase steadily after sunrise
Wednesday... with the most dangerous conditions persisting
through the afternoon.

* Wind... south increasing to 25 to 30 mph with gusts to near 40
mph at times.

* Relative humidity... as low as 25 to 30 percent.

* Fuel... grasses remain nearly 100 percent cured and surface fuels
are highly combustible.

* Impacts... any fires will spread very rapidly and be very
difficult to control in these dangerous conditions. Outdoor
burning is highly discouraged and should be avoided.

Precautionary/preparedness actions...

A Fire Weather Watch means that critical fire weather conditions
are forecast to occur. Listen for later forecasts and possible
red flag warnings.



Lee